Data for 09/26/2009

Time Sea-Level Adjusted Pressure Absolute Pressure Temperature Relative Humidity Dew Point   
(mb) (inHg) (mb) (inHg) (C) (F) (%) (C) (F)
00:05 1022 30.18 851 25.13 15.5 59.8 37 1 33.8
00:10 1022 30.18 851 25.13 15.3 59.5 38 1 33.8
00:15 1022 30.18 851 25.13 15 59 39 1.3 34.3
00:20 1022 30.18 851 25.13 14.6 58.2 40 1.2 34.2
00:25 1022 30.18 851 25.13 14.5 58.2 39 1 33.7
00:30 1022 30.18 851 25.13 14.3 57.8 40 1 33.8
00:35 1022 30.18 851 25.13 14.3 57.8 40 1.1 34
00:40 1022 30.18 851 25.13 14.3 57.8 40 0.8 33.5
00:45 1022 30.18 851 25.13 14.2 57.5 40 0.9 33.6
00:50 1022 30.18 851 25.13 14.2 57.5 39 0.6 33.1
00:55 1022 30.18 851 25.13 14 57.2 40 0.7 33.2
01:00 1022 30.18 851 25.13 14.1 57.3 39 0.4 32.8
01:05 1022 30.18 851 25.13 14.2 57.6 40 1 33.8
01:10 1022 30.18 851 25.13 13.6 56.5 41 0.6 33
01:15 1021 30.15 851 25.13 13.8 56.9 41 0.9 33.6
01:20 1021 30.15 851 25.13 13.5 56.4 42 0.9 33.5
01:25 1021 30.15 851 25.13 13.7 56.7 41 0.7 33.2
01:30 1021 30.15 851 25.13 13.9 57 40 0.7 33.3
01:35 1021 30.15 851 25.13 13.8 56.8 41 0.7 33.2
01:40 1021 30.15 851 25.13 13.5 56.3 41 0.6 33.1
01:45 1021 30.15 851 25.13 13.4 56.2 41 0.6 33.1
01:50 1021 30.15 850 25.1 13.3 56 42 0.6 33.1
01:55 1021 30.15 850 25.1 13.4 56.1 41 0.5 32.9
02:00 1021 30.15 851 25.13 13.5 56.2 41 0.6 33.2
02:05 1021 30.15 850 25.1 13.3 55.9 42 0.7 33.3
02:10 1021 30.15 850 25.1 13.2 55.7 43 0.8 33.4
02:15 1021 30.15 850 25.1 13.1 55.6 42 0.7 33.3
02:20 1021 30.15 850 25.1 13 55.3 44 0.9 33.6
02:25 1021 30.15 850 25.1 12.4 54.4 46 1.1 33.9
02:30 1021 30.15 850 25.1 12 53.7 47 1 33.8
02:35 1021 30.15 850 25.1 12 53.6 45 0.5 32.9
02:40 1021 30.15 850 25.1 12.3 54.2 45 0.7 33.3
02:45 1021 30.15 850 25.1 12.4 54.3 44 0.6 33
02:50 1021 30.15 850 25.1 12.6 54.6 45 0.9 33.6
02:55 1021 30.15 850 25.1 12.6 54.6 44 0.8 33.5
03:00 1021 30.15 850 25.1 12.2 54 47 1.2 34.1
03:05 1021 30.15 850 25.1 11.9 53.4 47 1 33.8
03:10 1021 30.15 850 25.1 11.9 53.5 46 0.9 33.6
03:15 1021 30.15 850 25.1 12 53.7 46 0.7 33.2
03:20 1021 30.15 850 25.1 12.1 53.9 44 0.3 32.5
03:25 1021 30.15 850 25.1 13 55.3 42 0.4 32.8
03:30 1021 30.15 850 25.1 13.3 55.9 41 0.6 33
03:35 1021 30.15 850 25.1 13.1 55.6 44 1.1 33.9
03:40 1021 30.15 850 25.1 13.1 55.5 42 0.5 33
03:45 1021 30.15 850 25.1 13.3 55.9 42 0.7 33.3
03:50 1021 30.15 850 25.1 12.9 55.2 45 1.3 34.3
03:55 1021 30.15 850 25.1 12.5 54.4 45 0.9 33.6
04:00 1021 30.15 850 25.1 12.4 54.4 44 0.6 33.1
04:05 1021 30.15 850 25.1 12.6 54.6 45 1 33.8
04:10 1021 30.15 850 25.1 12.6 54.7 45 1 33.8
04:15 1021 30.15 850 25.1 12.6 54.7 46 1.2 34.2
04:20 1021 30.15 850 25.1 12.2 54 45 0.7 33.3
04:25 1021 30.15 850 25.1 12.5 54.6 46 1.4 34.6
04:30 1021 30.15 850 25.1 12.5 54.5 45 0.9 33.6
04:35 1021 30.15 850 25.1 12.8 55 46 1.4 34.6
04:40 1021 30.15 850 25.1 12.2 54 49 1.9 35.3
04:45 1021 30.15 850 25.1 12 53.6 48 1.5 34.6
04:50 1021 30.15 850 25.1 11.7 53 50 1.7 35.1
04:55 1021 30.15 850 25.1 11.6 52.9 49 1.4 34.6
05:00 1021 30.15 850 25.1 11.6 52.9 50 1.6 35
05:05 1021 30.15 850 25.1 11.4 52.6 51 1.7 35
05:10 1021 30.15 850 25.1 11.1 52 52 1.7 35.1
05:15 1021 30.15 850 25.1 10.7 51.3 55 2.1 35.7
05:20 1021 30.15 850 25.1 11 51.9 51 1.3 34.3
05:25 1021 30.15 850 25.1 11.4 52.4 51 1.6 34.8
05:30 1021 30.15 850 25.1 11.2 52.2 51 1.5 34.7
05:35 1021 30.15 850 25.1 11 51.7 52 1.6 34.8
05:40 1021 30.15 850 25.1 10.8 51.5 53 1.7 35
05:45 1021 30.15 850 25.1 10.6 51.1 54 1.8 35.3
05:50 1021 30.15 850 25.1 10.3 50.6 54 1.4 34.6
05:55 1021 30.15 850 25.1 10.1 50.1 55 1.5 34.7
06:00 1021 30.15 850 25.1 10.3 50.5 53 1.1 34
06:05 1021 30.15 850 25.1 10.7 51.2 52 1.4 34.4
06:10 1021 30.15 850 25.1 10.6 51.1 54 1.6 34.9
06:15 1021 30.15 850 25.1 10.2 50.3 53 1 33.7
06:20 1021 30.15 850 25.1 10.1 50.2 54 1.2 34.1
06:25 1021 30.15 850 25.1 10.4 50.6 52 1 33.7
06:30 1021 30.15 850 25.1 10.3 50.6 54 1.6 34.8
06:35 1021 30.15 850 25.1 9.9 49.8 55 1.2 34.2
06:40 1021 30.15 851 25.13 9.9 49.7 54 1 33.8
06:45 1021 30.15 851 25.13 10 49.9 54 1.1 34
06:50 1021 30.15 851 25.13 10.1 50.1 53 0.9 33.7
06:55 1021 30.15 851 25.13 10.2 50.4 53 1 33.8
07:00 1021 30.15 851 25.13 10.3 50.5 51 0.6 33.1
07:05 1021 30.15 851 25.13 10.5 50.9 51 0.8 33.5
07:10 1021 30.15 851 25.13 10.1 50.2 56 1.8 35.2
07:15 1021 30.15 851 25.13 9.1 48.4 56 0.8 33.5
07:20 1021 30.15 851 25.13 9.9 49.7 52 0.6 33.1
07:25 1021 30.15 851 25.13 10 50 54 1.1 34
07:30 1021 30.15 851 25.13 10.1 50.2 52 0.7 33.2
07:35 1021 30.15 851 25.13 10 50 55 1.4 34.4
07:40 1021 30.15 851 25.13 9.3 48.8 56 1.1 34
07:45 1021 30.15 851 25.13 9 48.2 58 1.1 34
07:50 1021 30.15 851 25.13 9.2 48.5 54 0.5 32.9
07:55 1021 30.15 851 25.13 9.6 49.3 53 0.5 32.9
08:00 1021 30.15 850 25.1 10.1 50.2 52 0.6 33.2
08:05 1021 30.15 850 25.1 10.4 50.7 51 0.7 33.3
08:10 1021 30.15 850 25.1 10.7 51.3 51 1 33.7
08:15 1021 30.15 850 25.1 10.9 51.7 50 1.1 34
08:20 1021 30.15 850 25.1 11.4 52.6 49 1.1 34
08:25 1021 30.15 850 25.1 11.7 53.1 50 1.6 34.9
08:30 1021 30.15 850 25.1 11.6 52.9 50 1.5 34.7
08:35 1021 30.15 850 25.1 11.8 53.3 50 1.9 35.4
08:40 1021 30.15 850 25.1 12.1 53.7 48 1.6 34.8
08:45 1021 30.15 850 25.1 12.4 54.3 50 2.3 36.2
08:50 1021 30.15 850 25.1 12.5 54.4 50 2.5 36.5
08:55 1021 30.15 850 25.1 12.7 54.9 48 2 35.5
09:00 1021 30.15 850 25.1 13.1 55.5 47 2 35.7
09:05 1021 30.15 850 25.1 13.6 56.4 45 1.8 35.2
09:10 1021 30.15 850 25.1 13.8 56.8 43 1.6 34.9
09:15 1021 30.15 850 25.1 14 57.3 44 2.1 35.7
09:20 1021 30.15 850 25.1 14.6 58.3 43 2.1 35.9
09:25 1021 30.15 850 25.1 15.1 59.1 42 2.2 36
09:30 1021 30.15 850 25.1 15.6 60.2 40 2.3 36.1
09:35 1021 30.15 850 25.1 16.3 61.4 39 2.6 36.7
09:40 1021 30.15 850 25.1 17.2 62.9 37 2.5 36.6
09:45 1021 30.15 850 25.1 17.2 62.9 36 2.1 35.7
09:50 1021 30.15 850 25.1 17.3 63.1 35 1.9 35.4
09:55 1021 30.15 850 25.1 17.8 64.1 33 1.4 34.5
10:00 1021 30.15 850 25.1 19 66.1 30 0.9 33.7
10:05 1021 30.15 850 25.1 19.3 66.7 28 0.6 33.1
10:10 1021 30.15 850 25.1 19.7 67.4 28 0.8 33.5
10:15 1021 30.15 850 25.1 20.6 69 27 0.9 33.6
10:20 1021 30.15 850 25.1 21.5 70.6 26 1.2 34.2
10:25 1021 30.15 850 25.1 21.1 69.9 25 0.6 33
10:30 1021 30.15 850 25.1 20.6 69 26 0.5 32.9
10:35 1021 30.15 850 25.1 20.4 68.8 27 0.9 33.6
10:40 1021 30.15 850 25.1 20.3 68.6 28 1.2 34.2
10:45 1021 30.15 850 25.1 19.9 67.8 28 0.9 33.7
10:50 1021 30.15 850 25.1 20.3 68.6 28 1.4 34.4
10:55 1021 30.15 850 25.1 20.7 69.2 27 1 33.8
11:00 1021 30.15 850 25.1 21.3 70.4 26 1.2 34.1
11:05 1021 30.15 850 25.1 21.9 71.4 25 1 33.8
11:10 1021 30.15 850 25.1 21.9 71.5 25 1 33.8
11:15 1020 30.12 850 25.1 21.8 71.2 25 0.9 33.6
11:20 1020 30.12 850 25.1 21.3 70.3 26 1 33.7
11:25 1020 30.12 850 25.1 21.6 70.8 26 1.2 34.1
11:30 1020 30.12 850 25.1 21.9 71.5 24 0.8 33.5
11:35 1020 30.12 849 25.07 22.4 72.3 23 0.5 32.9
11:40 1020 30.12 849 25.07 23 73.3 23 0.8 33.4
11:45 1020 30.12 849 25.07 23.3 73.9 21 -0.2 31.7
11:50 1020 30.12 849 25.07 23.4 74.1 19 -1.6 29.2
11:55 1020 30.12 849 25.07 23 73.5 20 -0.9 30.4
12:00 1020 30.12 849 25.07 22.9 73.2 22 -0 31.9
12:05 1020 30.12 849 25.07 22.6 72.6 23 0.4 32.7
12:10 1020 30.12 849 25.07 22.1 71.7 23 0.1 32.1
12:15 1020 30.12 849 25.07 22.4 72.2 21 -0.6 30.9
12:20 1020 30.12 849 25.07 23.1 73.5 20 -0.8 30.6
12:25 1020 30.12 849 25.07 23.4 74.1 23 1 33.8
12:30 1020 30.12 849 25.07 23.1 73.6 22 0.5 32.9
12:35 1020 30.12 849 25.07 23.4 74.1 21 0.4 32.7
12:40 1019 30.09 849 25.07 23.1 73.6 21 -0.2 31.7
12:45 1019 30.09 849 25.07 23.9 74.9 21 0.7 33.2
12:50 1019 30.09 849 25.07 23.7 74.7 22 0.8 33.5
12:55 1019 30.09 848 25.04 23 73.3 21 -0.1 31.9
13:00 1019 30.09 848 25.04 24 75.2 20 0.2 32.4
13:05 1019 30.09 848 25.04 24.5 76.1 20 0.3 32.5
13:10 1019 30.09 848 25.04 24.8 76.7 19 0.2 32.3
13:15 1019 30.09 848 25.04 25.4 77.7 18 -0.2 31.6
13:20 1019 30.09 848 25.04 26 78.8 18 -0.1 31.9
13:25 1019 30.09 848 25.04 26.3 79.4 17 -0.5 31.2
13:30 1019 30.09 848 25.04 26.9 80.5 15 -1.2 29.8
13:35 1018 30.06 848 25.04 27 80.5 15 -1.6 29.1
13:40 1018 30.06 848 25.04 27 80.5 15 -1.7 28.9
13:45 1018 30.06 848 25.04 27.1 80.9 16 -0.6 30.9
13:50 1018 30.06 847 25.01 27 80.5 15 -1.3 29.6
13:55 1018 30.06 847 25.01 27.1 80.7 15 -1.3 29.6
14:00 1018 30.06 847 25.01 26.9 80.4 14 -2.2 28
14:05 1018 30.06 847 25.01 26.9 80.5 15 -1.9 28.7
14:10 1018 30.06 847 25.01 27.1 80.7 15 -1.6 29.2
14:15 1018 30.06 847 25.01 27.7 81.9 13 -3.1 26.5
14:20 1018 30.06 847 25.01 27.9 82.2 12 -3.3 26
14:25 1018 30.06 847 25.01 28 82.5 12 -3.8 25.1
14:30 1017 30.03 847 25.01 28.2 82.8 12 -4.1 24.6
14:35 1017 30.03 847 25.01 28.3 82.9 11 -4.3 24.2
14:40 1017 30.03 846 24.98 28 82.4 12 -4.1 24.6
14:45 1017 30.03 846 24.98 27.8 82 12 -4.3 24.2
14:50 1017 30.03 846 24.98 28.1 82.5 12 -4.3 24.3
14:55 1017 30.03 846 24.98 27.7 81.9 12 -4.2 24.4
15:00 1017 30.03 846 24.98 27.5 81.5 11 -5.1 22.8
15:05 1017 30.03 846 24.98 27.7 81.9 11 -5.1 22.8
15:10 1017 30.03 846 24.98 27.7 81.8 11 -5 23
15:15 1016 30 846 24.98 27.5 81.4 11 -5.2 22.6
15:20 1016 30 846 24.98 27.6 81.6 11 -5 22.9
15:25 1016 30 846 24.98 27.6 81.6 11 -5.5 22.2
15:30 1016 30 845 24.95 27.8 82 11 -5.1 22.9
15:35 1016 30 845 24.95 27.8 82 11 -5.3 22.4
15:40 1016 30 845 24.95 27.6 81.7 11 -5.5 22.1
15:45 1016 30 845 24.95 27.7 81.8 11 -5.3 22.5
15:50 1016 30 845 24.95 27.9 82.2 10 -5.8 21.6
15:55 1016 30 845 24.95 28 82.5 10 -6.3 20.6
16:00 1016 30 845 24.95 27.9 82.2 11 -5.1 22.8
16:05 1016 30 845 24.95 27.8 82.1 11 -5.3 22.4
16:10 1016 30 845 24.95 27.8 82.1 10 -5.8 21.5
16:15 1016 30 845 24.95 27.8 82 11 -4.8 23.3
16:20 1016 30 845 24.95 27.9 82.3 11 -5 23
16:25 1016 30 845 24.95 28.1 82.5 11 -5 23
16:30 1016 30 845 24.95 28.2 82.8 12 -3.9 24.9
16:35 1016 30 845 24.95 28.1 82.6 11 -5.3 22.5
16:40 1016 30 845 24.95 28.1 82.5 11 -5 23.1
16:45 1016 30 845 24.95 28.1 82.7 11 -4.7 23.6
16:50 1016 30 845 24.95 28.4 83.1 11 -4.4 24.1
16:55 1016 30 845 24.95 28.2 82.8 11 -4.9 23.3
17:00 1016 30 845 24.95 28.2 82.7 12 -4.1 24.6
17:05 1016 30 845 24.95 28.3 83 11 -5.2 22.6
17:10 1016 30 845 24.95 28.5 83.2 11 -4.2 24.4
17:15 1016 30 845 24.95 28.3 82.9 11 -4.5 23.9
17:20 1015 29.97 845 24.95 28.3 82.9 11 -4.3 24.3
17:25 1016 30 845 24.95 28.2 82.8 11 -4.5 23.9
17:30 1015 29.97 845 24.95 28.3 82.9 11 -4.5 23.9
17:35 1015 29.97 845 24.95 28.1 82.6 11 -4.6 23.6
17:40 1015 29.97 845 24.95 28.1 82.6 12 -3.9 24.9
17:45 1015 29.97 845 24.95 28 82.4 11 -4.3 24.2
17:50 1015 29.97 845 24.95 27.8 82.1 12 -4.4 24.1
17:55 1015 29.97 845 24.95 27.8 82 12 -4.4 24.1
18:00 1015 29.97 845 24.95 27.7 81.8 12 -3.7 25.3
18:05 1015 29.97 845 24.95 27.5 81.6 12 -4.1 24.7
18:10 1015 29.97 845 24.95 27.3 81.2 12 -4.2 24.5
18:15 1015 29.97 845 24.95 27.2 81 12 -4.8 23.4
18:20 1015 29.97 845 24.95 27.2 81 12 -4.4 24.2
18:25 1015 29.97 845 24.95 27.1 80.7 13 -3.8 25.1
18:30 1015 29.97 845 24.95 26.8 80.3 13 -3.8 25.2
18:35 1015 29.97 845 24.95 26.5 79.6 12 -4.8 23.4
18:40 1015 29.97 845 24.95 26.1 78.9 12 -5.3 22.5
18:45 1015 29.97 845 24.95 25.7 78.3 13 -4.8 23.4
18:50 1015 29.97 845 24.95 25.3 77.6 13 -4.8 23.4
18:55 1016 30 845 24.95 24.9 76.9 14 -4.6 23.7
19:00 1016 30 845 24.95 24.6 76.3 14 -4.7 23.5
19:05 1016 30 845 24.95 24.3 75.7 14 -4.4 24
19:10 1016 30 845 24.95 23.9 74.9 15 -4.5 24
19:15 1016 30 845 24.95 23.6 74.4 15 -4.6 23.7
19:20 1016 30 845 24.95 23.4 74.2 15 -4.6 23.8
19:25 1016 30 845 24.95 23.2 73.8 15 -4.6 23.6
19:30 1016 30 845 24.95 23.1 73.5 15 -4.8 23.3
19:35 1016 30 845 24.95 22.8 73.1 15 -4.8 23.4
19:40 1016 30 845 24.95 22.6 72.7 15 -4.9 23.2
19:45 1016 30 845 24.95 22.5 72.5 15 -4.8 23.3
19:50 1016 30 845 24.95 22.3 72.1 16 -4.5 23.9
19:55 1016 30 845 24.95 22.1 71.7 17 -3.8 25.1
20:00 1016 30 845 24.95 21.7 71.1 18 -3.7 25.3
20:05 1016 30 845 24.95 21.5 70.7 18 -3.6 25.5
20:10 1016 30 845 24.95 21.3 70.4 19 -3.4 25.9
20:15 1016 30 845 24.95 21.3 70.3 18 -3.7 25.3
20:20 1016 30 845 24.95 21.3 70.3 19 -3.4 25.9
20:25 1016 30 845 24.95 21.1 70 19 -3.4 25.9
20:30 1016 30 846 24.98 20.9 69.7 19 -3.5 25.8
20:35 1016 30 846 24.98 21 69.7 19 -3.4 25.9
20:40 1016 30 846 24.98 20.9 69.5 19 -3.1 26.4
20:45 1016 30 846 24.98 20.7 69.3 19 -3.2 26.2
20:50 1016 30 846 24.98 20.6 69 19 -3.4 25.9
20:55 1016 30 846 24.98 20.5 69 19 -3.4 25.9
21:00 1016 30 846 24.98 20.5 68.9 20 -3.2 26.3
21:05 1016 30 846 24.98 20.3 68.6 20 -3.1 26.4
21:10 1016 30 846 24.98 20.3 68.5 21 -2.9 26.8
21:15 1016 30 846 24.98 20.1 68.1 21 -2.9 26.8
21:20 1016 30 846 24.98 19.9 67.8 21 -2.8 27
21:25 1017 30.03 846 24.98 19.7 67.4 22 -2.8 27
21:30 1017 30.03 846 24.98 19.4 67 22 -2.7 27.1
21:35 1017 30.03 846 24.98 18.5 65.3 23 -2.8 26.9
21:40 1017 30.03 846 24.98 18.2 64.7 25 -1.8 28.7
21:45 1017 30.03 846 24.98 18.3 64.9 24 -2.5 27.6
21:50 1017 30.03 846 24.98 18.3 64.9 28 -0.6 30.9
21:55 1017 30.03 846 24.98 17.4 63.4 25 -2.5 27.4
22:00 1017 30.03 846 24.98 17.5 63.5 23 -3.6 25.5
22:05 1017 30.03 846 24.98 17.8 64 29 -0.2 31.7
22:10 1017 30.03 846 24.98 17.4 63.2 26 -2.1 28.2
22:15 1017 30.03 846 24.98 17.7 63.8 23 -3.4 26
22:20 1017 30.03 846 24.98 17.9 64.2 24 -3.1 26.5
22:25 1017 30.03 846 24.98 17.7 63.9 24 -2.8 27
22:30 1017 30.03 846 24.98 17.4 63.3 25 -2.5 27.6
22:35 1017 30.03 846 24.98 16.8 62.2 26 -2.6 27.3
22:40 1017 30.03 846 24.98 16.1 61 28 -2.6 27.4
22:45 1017 30.03 846 24.98 15.6 60.1 28 -2.8 27
22:50 1017 30.03 846 24.98 15.7 60.3 30 -1.8 28.8
22:55 1017 30.03 846 24.98 15.8 60.4 26 -3.6 25.5
23:00 1017 30.03 846 24.98 16.2 61.1 25 -3.7 25.4
23:05 1017 30.03 846 24.98 16.3 61.3 26 -3.4 25.9
23:10 1017 30.03 846 24.98 16.6 61.8 27 -2.3 27.9
23:15 1017 30.03 846 24.98 16.5 61.6 24 -3.8 25.1
23:20 1017 30.03 846 24.98 16.5 61.6 25 -3.7 25.3
23:25 1017 30.03 846 24.98 16.3 61.3 24 -4.3 24.3
23:30 1017 30.03 846 24.98 16.5 61.6 24 -4 24.7
23:35 1017 30.03 846 24.98 16.4 61.5 24 -4 24.9
23:40 1017 30.03 846 24.98 16.3 61.3 25 -4 24.9
23:45 1017 30.03 846 24.98 16.4 61.4 24 -4.1 24.7
23:50 1017 30.03 846 24.98 16.6 61.8 24 -4.1 24.6
23:55 1017 30.03 846 24.98 16.7 62 24 -3.7 25.3
24:00 1017 30.03 846 24.98 16.6 61.9 24 -4 24.9